createdAt,value
2017-12-04T00:00:35.114Z,7.60
2017-12-04T00:03:02.623Z,7.30
2017-12-04T00:05:30.061Z,7.80
2017-12-04T00:07:57.540Z,8.20
2017-12-04T00:10:28.861Z,8.30
2017-12-04T00:12:57.790Z,8.20
2017-12-04T00:15:25.240Z,8.20
2017-12-04T00:17:52.671Z,7.80
2017-12-04T00:20:20.161Z,7.90
2017-12-04T00:22:47.629Z,8.00
2017-12-04T00:25:15.119Z,8.10
2017-12-04T00:27:43.369Z,7.80
2017-12-04T00:30:11.578Z,7.80
2017-12-04T00:32:39.019Z,7.80
2017-12-04T00:35:07.245Z,7.40
2017-12-04T00:37:34.881Z,7.30
2017-12-04T00:40:02.343Z,7.90
2017-12-04T00:42:29.802Z,7.50
2017-12-04T00:44:57.247Z,7.80
2017-12-04T00:47:24.685Z,7.80
2017-12-04T00:49:52.962Z,8.50
2017-12-04T00:52:21.179Z,8.40
2017-12-04T00:54:48.608Z,8.40
2017-12-04T00:57:16.095Z,8.10
2017-12-04T00:59:43.560Z,8.10
2017-12-04T01:02:11.001Z,7.80
2017-12-04T01:04:38.473Z,7.70
2017-12-04T01:07:05.934Z,8.00
2017-12-04T01:09:33.559Z,8.30
2017-12-04T01:12:00.999Z,7.90
2017-12-04T01:14:30.469Z,8.20
2017-12-04T01:16:57.926Z,8.20
2017-12-04T01:19:25.690Z,8.30
2017-12-04T01:21:53.154Z,8.50
2017-12-04T01:24:20.598Z,8.20
2017-12-04T01:26:48.319Z,7.90
2017-12-04T01:29:15.785Z,8.00
2017-12-04T01:31:43.393Z,8.30
2017-12-04T01:34:10.842Z,8.70
2017-12-04T01:36:38.503Z,8.10
2017-12-04T01:39:05.961Z,7.70
2017-12-04T01:41:33.405Z,8.00
2017-12-04T01:44:00.872Z,7.80
2017-12-04T01:46:28.333Z,7.90
2017-12-04T01:48:56.725Z,8.30
2017-12-04T01:51:24.188Z,8.50
2017-12-04T01:53:51.637Z,8.00
2017-12-04T01:56:19.108Z,8.30
2017-12-04T01:58:46.545Z,8.40
2017-12-04T02:01:14.006Z,8.70
2017-12-04T02:03:41.550Z,8.30
2017-12-04T02:06:09.001Z,8.30
2017-12-04T02:08:36.473Z,8.10
2017-12-04T02:11:03.948Z,8.10
2017-12-04T02:13:31.406Z,8.30
2017-12-04T02:15:58.870Z,8.50
2017-12-04T02:18:26.321Z,8.20
2017-12-04T02:20:53.803Z,8.50
2017-12-04T02:23:21.263Z,8.20
2017-12-04T02:25:50.260Z,8.70
2017-12-04T02:28:18.524Z,8.50
2017-12-04T02:30:45.979Z,8.50
2017-12-04T02:33:13.430Z,8.80
2017-12-04T02:35:40.881Z,8.30
2017-12-04T02:38:08.345Z,8.30
2017-12-04T02:40:35.813Z,8.00
2017-12-04T02:43:03.260Z,8.30
2017-12-04T02:45:30.718Z,8.20
2017-12-04T02:47:58.176Z,8.30
2017-12-04T02:50:25.642Z,8.50
2017-12-04T02:52:54.406Z,8.60
2017-12-04T02:55:21.888Z,8.60
2017-12-04T02:57:49.341Z,8.50
2017-12-04T03:00:16.822Z,8.70
2017-12-04T03:02:45.069Z,8.60
2017-12-04T03:05:12.553Z,8.60
2017-12-04T03:07:40.835Z,8.30
2017-12-04T03:10:09.086Z,8.20
2017-12-04T03:12:36.537Z,8.10
2017-12-04T03:15:03.998Z,8.20
2017-12-04T03:17:31.477Z,8.70
2017-12-04T03:19:59.701Z,8.90
2017-12-04T03:22:27.143Z,8.90
2017-12-04T03:24:54.580Z,9.10
2017-12-04T03:27:22.129Z,9.10
2017-12-04T03:29:50.350Z,9.10
2017-12-04T03:32:17.779Z,9.10
2017-12-04T03:34:45.232Z,8.50
2017-12-04T03:37:12.685Z,8.80
2017-12-04T03:39:40.175Z,8.60
2017-12-04T03:42:07.605Z,8.40
2017-12-04T03:44:35.086Z,9.00
2017-12-04T03:47:02.525Z,8.30
2017-12-04T03:49:29.988Z,8.10
2017-12-04T03:51:57.461Z,8.00
2017-12-04T03:54:24.911Z,7.90
2017-12-04T03:56:52.360Z,8.10
2017-12-04T03:59:19.814Z,8.60
2017-12-04T04:01:48.206Z,8.40
2017-12-04T04:04:15.669Z,8.50
2017-12-04T04:06:43.125Z,8.70
2017-12-04T04:09:10.593Z,8.40
2017-12-04T04:11:38.861Z,8.80
2017-12-04T04:14:06.317Z,8.90
2017-12-04T04:16:33.798Z,8.60
2017-12-04T04:19:01.245Z,8.30
2017-12-04T04:21:28.696Z,8.60
2017-12-04T04:23:57.075Z,9.00
2017-12-04T04:26:24.652Z,8.30
2017-12-04T04:28:52.125Z,8.20
2017-12-04T04:31:19.585Z,8.80
2017-12-04T04:33:47.022Z,8.60
2017-12-04T04:36:14.488Z,9.00
2017-12-04T04:38:41.961Z,9.10
2017-12-04T04:41:09.446Z,9.20
2017-12-04T04:43:36.892Z,9.20
2017-12-04T04:46:04.339Z,9.20
2017-12-04T04:48:31.777Z,8.40
2017-12-04T04:50:59.257Z,8.60
2017-12-04T04:53:26.721Z,8.40
2017-12-04T04:55:54.178Z,8.60
2017-12-04T04:58:21.616Z,8.50
2017-12-04T05:00:49.091Z,8.90
2017-12-04T05:03:16.554Z,9.00
2017-12-04T05:05:43.997Z,9.20
2017-12-04T05:08:11.456Z,9.40
2017-12-04T05:10:38.912Z,9.20
2017-12-04T05:13:06.362Z,9.60
2017-12-04T05:15:33.833Z,9.70
2017-12-04T05:18:02.029Z,9.80
2017-12-04T05:20:29.484Z,9.20
2017-12-04T05:22:57.241Z,9.30
2017-12-04T05:25:25.482Z,8.40
2017-12-04T05:27:52.939Z,8.40
2017-12-04T05:30:20.399Z,8.60
2017-12-04T05:32:47.860Z,8.40
2017-12-04T05:35:15.344Z,8.70
2017-12-04T05:37:42.826Z,8.60
2017-12-04T05:40:11.053Z,9.40
2017-12-04T05:42:38.500Z,9.40
2017-12-04T05:45:05.956Z,9.10
2017-12-04T05:47:33.417Z,9.10
2017-12-04T05:50:00.877Z,9.30
2017-12-04T05:52:28.337Z,9.50
2017-12-04T05:54:55.765Z,9.50
2017-12-04T05:57:23.233Z,9.50
2017-12-04T05:59:50.716Z,9.60
2017-12-04T06:02:18.164Z,9.70
2017-12-04T06:04:45.613Z,9.90
2017-12-04T06:07:13.085Z,9.90
2017-12-04T06:09:40.530Z,9.90
2017-12-04T06:12:07.989Z,10.10
2017-12-04T06:14:35.450Z,9.70
2017-12-04T06:17:02.900Z,9.90
2017-12-04T06:19:30.392Z,9.50
2017-12-04T06:21:57.820Z,9.30
2017-12-04T06:24:25.308Z,9.50
2017-12-04T06:26:53.561Z,10.10
2017-12-04T06:29:21.040Z,10.10
2017-12-04T06:31:48.480Z,10.30
2017-12-04T06:34:15.957Z,9.50
2017-12-04T06:36:43.398Z,9.10
2017-12-04T06:39:10.880Z,9.40
2017-12-04T06:41:38.336Z,9.60
2017-12-04T06:44:05.793Z,9.70
2017-12-04T06:46:33.242Z,9.60
2017-12-04T06:49:00.693Z,9.30
2017-12-04T06:51:28.131Z,9.20
2017-12-04T06:53:55.554Z,9.20
2017-12-04T06:56:22.989Z,9.30
2017-12-04T06:58:51.214Z,9.60
2017-12-04T07:03:52.614Z,9.70
2017-12-04T07:06:20.061Z,9.50
2017-12-04T07:08:48.462Z,9.60
2017-12-04T07:11:16.660Z,9.10
2017-12-04T07:13:44.109Z,9.10
2017-12-04T07:16:12.374Z,9.80
2017-12-04T07:18:39.746Z,9.80
2017-12-04T07:21:07.950Z,9.80
2017-12-04T07:23:35.365Z,9.80
2017-12-04T07:26:03.574Z,9.50
2017-12-04T07:28:31.030Z,9.50
2017-12-04T07:30:58.485Z,9.60
2017-12-04T07:33:25.942Z,9.10
2017-12-04T07:35:53.392Z,9.20
2017-12-04T07:38:20.840Z,9.40
2017-12-04T07:40:48.321Z,9.60
2017-12-04T07:43:15.774Z,9.70
2017-12-04T07:45:43.215Z,9.80
2017-12-04T07:48:10.668Z,9.20
2017-12-04T07:50:38.122Z,9.30
2017-12-04T07:53:06.401Z,9.50
2017-12-04T07:55:34.581Z,9.60
2017-12-04T07:58:02.064Z,9.60
2017-12-04T08:00:29.510Z,10.10
2017-12-04T08:02:57.700Z,9.80
2017-12-04T08:05:25.168Z,9.50
2017-12-04T08:07:52.607Z,9.80
2017-12-04T08:10:20.053Z,9.80
2017-12-04T08:12:47.515Z,9.80
2017-12-04T08:15:14.953Z,9.80
2017-12-04T08:17:43.177Z,9.80
2017-12-04T08:20:10.614Z,9.80
2017-12-04T08:22:38.093Z,10.30
2017-12-04T08:25:05.545Z,10.00
2017-12-04T08:27:32.993Z,10.00
2017-12-04T08:30:00.443Z,9.60
2017-12-04T08:32:27.902Z,9.90
2017-12-04T08:34:55.361Z,10.20
2017-12-04T08:37:22.860Z,10.30
2017-12-04T08:39:50.322Z,10.00
2017-12-04T08:42:17.769Z,10.40
2017-12-04T08:44:45.229Z,10.60
2017-12-04T08:47:12.730Z,10.90
2017-12-04T08:49:40.934Z,10.50
2017-12-04T08:52:08.417Z,10.40
2017-12-04T08:54:35.870Z,10.60
2017-12-04T08:57:03.318Z,10.60
2017-12-04T08:59:30.804Z,10.40
2017-12-04T09:01:58.277Z,10.40
2017-12-04T09:04:26.509Z,10.50
2017-12-04T09:06:54.001Z,10.50
2017-12-04T09:09:21.458Z,10.00
2017-12-04T09:11:48.920Z,10.30
2017-12-04T09:14:16.376Z,9.90
2017-12-04T09:16:43.814Z,9.80
2017-12-04T09:19:11.290Z,9.90
2017-12-04T09:21:38.733Z,10.00
2017-12-04T09:24:06.320Z,10.20
2017-12-04T09:26:33.777Z,10.60
2017-12-04T09:29:01.237Z,10.80
2017-12-04T09:31:30.092Z,10.10
2017-12-04T09:33:57.998Z,10.10
2017-12-04T09:36:25.457Z,10.60
2017-12-04T09:38:53.681Z,10.60
2017-12-04T09:41:21.145Z,10.60
2017-12-04T09:43:48.653Z,10.90
2017-12-04T09:46:16.840Z,10.40
2017-12-04T09:48:44.280Z,10.40
2017-12-04T09:51:12.511Z,11.10
2017-12-04T09:53:40.741Z,11.40
2017-12-04T09:56:08.181Z,11.40
2017-12-04T09:58:36.438Z,11.40
2017-12-04T10:01:03.894Z,11.40
2017-12-04T10:03:31.369Z,11.00
2017-12-04T10:05:59.588Z,11.00
2017-12-04T10:08:27.043Z,11.00
2017-12-04T10:10:54.485Z,11.20
2017-12-04T10:13:21.939Z,11.20
2017-12-04T10:15:50.129Z,11.00
2017-12-04T10:18:17.571Z,11.00
2017-12-04T10:20:45.044Z,11.00
2017-12-04T10:23:12.489Z,11.40
2017-12-04T10:25:39.973Z,11.30
2017-12-04T10:28:07.422Z,11.20
2017-12-04T10:30:34.893Z,11.20
2017-12-04T10:33:02.350Z,11.60
2017-12-04T10:35:29.780Z,11.50
2017-12-04T10:37:58.177Z,11.50
2017-12-04T10:40:25.620Z,11.70
2017-12-04T10:42:53.084Z,12.00
2017-12-04T10:45:20.558Z,11.90
2017-12-04T10:47:48.016Z,11.90
2017-12-04T10:50:15.454Z,12.20
2017-12-04T10:52:42.919Z,12.10
2017-12-04T10:55:10.389Z,11.50
2017-12-04T10:57:37.837Z,11.60
2017-12-04T11:00:05.311Z,11.40
2017-12-04T11:02:32.839Z,11.60
2017-12-04T11:05:01.028Z,11.00
2017-12-04T11:07:28.489Z,11.00
2017-12-04T11:09:55.949Z,11.00
2017-12-04T11:12:23.430Z,11.20
2017-12-04T11:14:50.869Z,11.40
2017-12-04T11:17:18.333Z,11.40
2017-12-04T11:19:46.326Z,10.70
2017-12-04T11:22:13.757Z,10.90
2017-12-04T11:24:41.220Z,11.10
2017-12-04T11:27:08.720Z,11.00
2017-12-04T11:29:36.139Z,11.00
2017-12-04T11:32:03.605Z,11.00
2017-12-04T11:34:31.077Z,10.70
2017-12-04T11:36:58.539Z,10.80
2017-12-04T11:39:26.000Z,11.20
2017-12-04T11:41:53.457Z,11.20
2017-12-04T11:44:20.914Z,11.00
2017-12-04T11:46:48.372Z,11.20
2017-12-04T11:49:15.833Z,11.20
2017-12-04T11:51:43.284Z,11.40
2017-12-04T11:54:10.754Z,11.50
2017-12-04T11:56:38.192Z,11.20
2017-12-04T11:59:05.647Z,11.10
2017-12-04T12:01:33.106Z,10.80
2017-12-04T12:04:00.566Z,10.90
2017-12-04T12:06:28.026Z,10.90
2017-12-04T12:08:55.481Z,10.90
2017-12-04T12:11:22.922Z,10.90
2017-12-04T12:13:50.381Z,11.10
2017-12-04T12:16:17.858Z,11.00
2017-12-04T12:18:45.318Z,11.20
2017-12-04T12:21:12.777Z,11.20
2017-12-04T12:23:40.233Z,11.10
2017-12-04T12:26:07.681Z,11.10
2017-12-04T12:28:35.131Z,11.10
2017-12-04T12:31:02.591Z,11.30
2017-12-04T12:33:30.053Z,11.10
2017-12-04T12:35:58.253Z,11.40
2017-12-04T12:38:26.469Z,11.10
2017-12-04T12:40:53.900Z,11.10
2017-12-04T12:43:21.341Z,11.10
2017-12-04T12:45:49.558Z,11.30
2017-12-04T12:48:16.990Z,11.30
2017-12-04T12:50:44.901Z,11.10
2017-12-04T12:53:12.348Z,11.20
2017-12-04T12:55:39.791Z,11.30
2017-12-04T12:58:07.249Z,11.10
2017-12-04T13:00:34.692Z,11.30
2017-12-04T13:03:02.170Z,11.10
2017-12-04T13:05:29.630Z,10.80
2017-12-04T13:07:57.085Z,10.70
2017-12-04T13:10:24.550Z,11.00
2017-12-04T13:12:51.977Z,11.20
2017-12-04T13:15:19.470Z,10.90
2017-12-04T13:17:47.524Z,11.20
2017-12-04T13:20:14.997Z,11.00
2017-12-04T13:22:42.425Z,11.20
2017-12-04T13:25:09.902Z,11.20
2017-12-04T13:27:37.363Z,11.20
2017-12-04T13:30:04.801Z,11.30
2017-12-04T13:32:44.032Z,11.40
2017-12-04T13:35:23.369Z,11.40
2017-12-04T13:37:50.837Z,11.40
2017-12-04T13:40:18.321Z,11.20
2017-12-04T13:42:45.845Z,11.60
2017-12-04T13:45:13.318Z,11.90
2017-12-04T13:47:40.777Z,11.80
2017-12-04T13:50:08.245Z,12.10
2017-12-04T13:52:35.695Z,11.80
2017-12-04T13:55:03.158Z,11.40
2017-12-04T13:57:31.621Z,11.00
2017-12-04T13:59:59.079Z,10.80
2017-12-04T14:02:26.540Z,11.10
2017-12-04T14:04:54.019Z,11.00
2017-12-04T14:07:21.485Z,11.00
2017-12-04T14:09:48.951Z,10.80
2017-12-04T14:12:16.394Z,11.20
2017-12-04T14:14:43.880Z,10.90
2017-12-04T14:17:11.329Z,11.10
2017-12-04T14:19:38.805Z,10.80
2017-12-04T14:22:06.274Z,10.70
2017-12-04T14:24:33.711Z,10.40
2017-12-04T14:27:01.178Z,10.80
2017-12-04T14:29:28.637Z,11.20
2017-12-04T14:31:56.100Z,10.90
2017-12-04T14:34:23.560Z,11.10
2017-12-04T14:36:51.019Z,11.40
2017-12-04T14:39:18.452Z,11.40
2017-12-04T14:41:45.908Z,11.50
2017-12-04T14:44:14.267Z,11.30
2017-12-04T14:46:41.729Z,11.30
2017-12-04T14:49:09.220Z,11.30
2017-12-04T14:51:36.665Z,11.40
2017-12-04T14:54:04.105Z,11.30
2017-12-04T14:56:31.576Z,11.20
2017-12-04T14:58:59.029Z,11.30
2017-12-04T15:01:26.501Z,11.20
2017-12-04T15:03:53.957Z,11.20
2017-12-04T15:06:21.417Z,11.40
2017-12-04T15:08:48.858Z,11.30
2017-12-04T15:11:16.316Z,11.20
2017-12-04T15:13:43.788Z,11.10
2017-12-04T15:16:11.282Z,11.20
2017-12-04T15:18:39.515Z,10.80
2017-12-04T15:21:06.985Z,10.80
2017-12-04T15:23:34.450Z,11.00
2017-12-04T15:26:02.670Z,11.20
2017-12-04T15:28:30.130Z,11.20
2017-12-04T15:30:57.568Z,11.40
2017-12-04T15:33:25.029Z,11.30
2017-12-04T15:35:53.261Z,11.10
2017-12-04T15:38:20.726Z,11.10
2017-12-04T15:40:48.157Z,11.00
2017-12-04T15:43:15.601Z,11.20
2017-12-04T15:45:45.364Z,11.40
2017-12-04T15:48:17.551Z,11.40
2017-12-04T15:50:52.499Z,11.20
2017-12-04T15:55:59.277Z,10.70
2017-12-04T15:58:26.714Z,10.80
2017-12-04T16:00:54.938Z,11.00
2017-12-04T16:03:22.388Z,11.00
2017-12-04T16:05:49.839Z,10.60
2017-12-04T16:08:17.293Z,10.80
2017-12-04T16:10:44.760Z,10.90
2017-12-04T16:13:12.222Z,11.10
2017-12-04T16:15:39.693Z,11.00
2017-12-04T16:18:07.146Z,11.30
2017-12-04T16:20:34.590Z,11.30
2017-12-04T16:23:02.054Z,11.50
2017-12-04T16:25:29.530Z,11.60
2017-12-04T16:27:56.982Z,11.60
2017-12-04T16:30:24.449Z,11.70
2017-12-04T16:32:51.910Z,11.80
2017-12-04T16:35:19.370Z,11.50
2017-12-04T16:37:46.818Z,11.50
2017-12-04T16:40:14.525Z,11.60
2017-12-04T16:42:42.853Z,11.90
2017-12-04T16:45:10.299Z,11.80
2017-12-04T16:47:37.769Z,11.80
2017-12-04T16:50:05.516Z,11.70
2017-12-04T16:52:33.013Z,11.60
2017-12-04T16:55:00.454Z,11.50
2017-12-04T16:57:27.910Z,11.70
2017-12-04T16:59:55.385Z,11.90
2017-12-04T17:02:22.825Z,11.90
2017-12-04T17:04:50.293Z,11.90
2017-12-04T17:07:17.774Z,11.70
2017-12-04T17:09:45.234Z,11.80
2017-12-04T17:12:12.682Z,11.90
2017-12-04T17:14:40.149Z,11.50
2017-12-04T17:17:07.626Z,11.50
2017-12-04T17:19:35.926Z,11.20
2017-12-04T17:22:04.903Z,11.20
2017-12-04T17:24:33.121Z,11.30
2017-12-04T17:27:00.622Z,11.30
2017-12-04T17:29:28.088Z,11.20
2017-12-04T17:31:56.333Z,11.40
2017-12-04T17:34:23.789Z,11.30
2017-12-04T17:36:51.277Z,11.50
2017-12-04T17:39:19.526Z,11.60
2017-12-04T17:41:46.986Z,11.60
2017-12-04T17:44:14.486Z,11.80
2017-12-04T17:46:42.726Z,12.00
2017-12-04T17:49:10.157Z,12.00
2017-12-04T17:51:37.649Z,11.70
2017-12-04T17:54:05.126Z,11.50
2017-12-04T17:56:33.312Z,11.70
2017-12-04T17:59:00.765Z,11.70
2017-12-04T18:01:28.763Z,11.80
2017-12-04T18:03:56.209Z,11.40
2017-12-04T18:06:24.518Z,11.20
2017-12-04T18:08:51.916Z,11.30
2017-12-04T18:11:20.163Z,11.70
2017-12-04T18:13:47.621Z,11.70
2017-12-04T18:16:15.345Z,11.80
2017-12-04T18:18:42.851Z,11.80
2017-12-04T18:21:10.343Z,11.80
2017-12-04T18:23:37.821Z,12.00
2017-12-04T18:26:05.275Z,12.20
2017-12-04T18:28:32.725Z,12.10
2017-12-04T18:31:00.187Z,12.00
2017-12-04T18:33:27.617Z,12.00
2017-12-04T18:35:55.989Z,11.70
2017-12-04T18:38:24.202Z,11.60
2017-12-04T18:40:51.645Z,11.60
2017-12-04T18:43:19.104Z,11.30
2017-12-04T18:45:46.575Z,11.60
2017-12-04T18:48:14.047Z,11.90
2017-12-04T18:50:41.514Z,11.40
2017-12-04T18:53:08.957Z,11.30
2017-12-04T18:55:36.419Z,11.50
2017-12-04T18:58:03.857Z,11.70
2017-12-04T19:00:31.318Z,11.80
2017-12-04T19:02:59.265Z,11.90
2017-12-04T19:05:27.469Z,11.80
2017-12-04T19:07:54.919Z,11.80
2017-12-04T19:10:22.515Z,12.10
2017-12-04T19:12:49.962Z,11.80
2017-12-04T19:15:17.429Z,11.70
2017-12-04T19:17:44.881Z,11.70
2017-12-04T19:20:13.117Z,11.80
2017-12-04T19:22:40.597Z,11.80
2017-12-04T19:25:08.068Z,11.90
2017-12-04T19:27:35.526Z,11.90
2017-12-04T19:30:02.979Z,11.90
2017-12-04T19:32:30.418Z,12.00
2017-12-04T19:34:57.876Z,11.90
2017-12-04T19:37:25.341Z,11.70
2017-12-04T19:39:52.794Z,11.70
2017-12-04T19:42:20.285Z,11.90
2017-12-04T19:44:47.769Z,11.80
2017-12-04T19:47:16.035Z,12.00
2017-12-04T19:49:43.475Z,12.00
2017-12-04T19:52:10.957Z,12.10
2017-12-04T19:54:38.424Z,12.30
2017-12-04T19:57:05.921Z,11.90
2017-12-04T19:59:33.382Z,11.50
2017-12-04T20:02:01.595Z,11.70
2017-12-04T20:04:29.049Z,11.70
2017-12-04T20:06:56.529Z,11.20
2017-12-04T20:09:23.982Z,11.20
2017-12-04T20:11:51.420Z,11.50
2017-12-04T20:14:18.849Z,11.90
2017-12-04T20:16:46.308Z,11.60
2017-12-04T20:19:13.732Z,11.70
2017-12-04T20:21:41.969Z,12.20
2017-12-04T20:24:09.427Z,12.20
2017-12-04T20:26:36.885Z,11.90
2017-12-04T20:29:04.355Z,11.70
2017-12-04T20:31:31.817Z,11.70
2017-12-04T20:33:59.361Z,12.00
2017-12-04T20:36:26.837Z,11.90
2017-12-04T20:38:55.034Z,11.90
2017-12-04T20:41:22.472Z,11.90
2017-12-04T20:43:50.749Z,11.60
2017-12-04T20:46:18.206Z,11.60
2017-12-04T20:48:46.422Z,11.60
2017-12-04T20:51:13.866Z,11.60
2017-12-04T20:53:41.301Z,11.80
2017-12-04T20:56:09.509Z,11.60
2017-12-04T20:58:36.973Z,11.60
2017-12-04T21:01:04.415Z,11.50
2017-12-04T21:03:31.861Z,11.30
2017-12-04T21:05:59.495Z,11.80
2017-12-04T21:08:38.646Z,11.80
2017-12-04T21:11:18.736Z,11.70
2017-12-04T21:13:58.153Z,11.60
2017-12-04T21:16:39.509Z,11.50
2017-12-04T21:19:07.713Z,11.50
2017-12-04T21:21:35.169Z,11.50
2017-12-04T21:24:02.644Z,11.40
2017-12-04T21:26:30.089Z,11.60
2017-12-04T21:28:57.566Z,11.90
2017-12-04T21:31:25.029Z,11.80
2017-12-04T21:33:52.472Z,11.50
2017-12-04T21:36:19.955Z,11.50
2017-12-04T21:38:47.409Z,11.00
2017-12-04T21:41:15.086Z,11.20
2017-12-04T21:43:42.520Z,11.40
2017-12-04T21:46:09.994Z,11.40
2017-12-04T21:48:37.449Z,11.30
2017-12-04T21:51:04.903Z,11.20
2017-12-04T21:53:32.358Z,11.10
2017-12-04T21:56:00.134Z,11.20
2017-12-04T21:58:27.573Z,10.90
2017-12-04T22:00:55.054Z,11.10
2017-12-04T22:03:22.501Z,11.60
2017-12-04T22:05:49.953Z,11.20
2017-12-04T22:08:17.405Z,11.30
2017-12-04T22:10:44.902Z,11.50
2017-12-04T22:13:12.344Z,11.10
2017-12-04T22:15:39.798Z,11.50
2017-12-04T22:18:07.258Z,11.80
2017-12-04T22:20:34.739Z,11.60
2017-12-04T22:23:02.176Z,11.30
2017-12-04T22:25:29.633Z,11.30
2017-12-04T22:27:57.096Z,11.40
2017-12-04T22:30:24.552Z,11.40
2017-12-04T22:32:52.031Z,11.00
2017-12-04T22:35:19.481Z,11.50
2017-12-04T22:37:46.941Z,11.50
2017-12-04T22:40:14.401Z,11.20
2017-12-04T22:42:41.861Z,11.60
2017-12-04T22:45:09.322Z,11.30
2017-12-04T22:47:36.781Z,11.40
2017-12-04T22:50:04.237Z,11.70
2017-12-04T22:52:32.422Z,11.80
2017-12-04T22:54:59.949Z,11.80
2017-12-04T22:57:28.146Z,11.40
2017-12-04T22:59:56.349Z,11.50
2017-12-04T23:02:23.789Z,11.50
2017-12-04T23:04:51.233Z,11.40
2017-12-04T23:07:19.477Z,11.40
2017-12-04T23:09:46.958Z,11.30
2017-12-04T23:12:14.409Z,11.30
2017-12-04T23:14:41.856Z,11.50
2017-12-04T23:17:09.333Z,11.40
2017-12-04T23:19:36.797Z,10.80
2017-12-04T23:22:04.248Z,11.10
2017-12-04T23:24:31.717Z,11.30
2017-12-04T23:26:59.800Z,11.60
2017-12-04T23:29:28.005Z,11.60
2017-12-04T23:31:55.501Z,11.60
2017-12-04T23:34:23.012Z,10.60
2017-12-04T23:36:50.437Z,10.70
2017-12-04T23:39:18.660Z,10.40
2017-12-04T23:41:46.111Z,10.40
2017-12-04T23:44:13.578Z,10.80
2017-12-04T23:46:41.019Z,10.90
2017-12-04T23:49:08.481Z,10.70
2017-12-04T23:51:35.943Z,11.10
2017-12-04T23:54:03.377Z,10.80
2017-12-04T23:56:30.854Z,11.20
2017-12-04T23:58:58.321Z,10.70
